createdAt,value
2022-09-14T00:00:28.666Z,62.09
2022-09-14T00:06:15.475Z,62.14
2022-09-14T00:11:47.436Z,62.33
2022-09-14T00:17:19.117Z,62.08
2022-09-14T00:22:50.732Z,62.38
2022-09-14T00:28:22.143Z,62.51
2022-09-14T00:33:54.411Z,62.12
2022-09-14T00:39:25.848Z,62.67
2022-09-14T00:45:10.718Z,62.34
2022-09-14T00:50:42.114Z,62.34
2022-09-14T00:56:14.681Z,62.37
2022-09-14T01:01:45.999Z,62.70
2022-09-14T01:07:26.743Z,62.45
2022-09-14T01:13:18.219Z,62.45
2022-09-14T01:18:57.032Z,62.44
2022-09-14T01:24:49.675Z,62.49
2022-09-14T01:30:22.982Z,62.54
2022-09-14T01:35:57.505Z,62.77
2022-09-14T01:41:31.537Z,62.86
2022-09-14T01:47:23.542Z,62.89
2022-09-14T01:53:41.084Z,62.87
2022-09-14T01:59:24.507Z,62.98
2022-09-14T02:05:04.163Z,63.15
2022-09-14T02:10:35.191Z,63.36
2022-09-14T02:16:06.114Z,63.02
2022-09-14T02:21:38.888Z,63.09
2022-09-14T02:27:10.225Z,63.33
2022-09-14T02:32:53.626Z,63.08
2022-09-14T02:38:41.236Z,62.98
2022-09-14T02:44:22.030Z,63.36
2022-09-14T02:50:41.159Z,63.09
2022-09-14T02:56:12.861Z,62.88
2022-09-14T03:01:44.081Z,63.07
2022-09-14T03:07:15.189Z,63.27
2022-09-14T03:12:46.146Z,63.20
2022-09-14T03:18:18.111Z,63.40
2022-09-14T03:23:51.382Z,63.30
2022-09-14T03:29:22.788Z,62.89
2022-09-14T03:34:54.466Z,63.09
2022-09-14T03:40:25.875Z,63.20
2022-09-14T03:45:57.427Z,63.09
2022-09-14T03:51:28.494Z,63.42
2022-09-14T03:56:59.639Z,63.37
2022-09-14T04:02:30.652Z,63.54
2022-09-14T04:08:02.700Z,63.50
2022-09-14T04:13:34.601Z,63.52
2022-09-14T04:19:06.744Z,63.42
2022-09-14T04:24:37.800Z,63.63
2022-09-14T04:30:09.488Z,63.69
2022-09-14T04:35:40.417Z,63.76
2022-09-14T04:41:14.226Z,63.64
2022-09-14T04:46:47.275Z,64.03
2022-09-14T04:52:18.372Z,64.40
2022-09-14T04:57:49.716Z,64.29
2022-09-14T05:03:20.649Z,64.32
2022-09-14T05:08:52.516Z,64.83
2022-09-14T05:14:23.873Z,64.74
2022-09-14T05:19:54.989Z,64.86
2022-09-14T05:25:27.646Z,64.95
2022-09-14T05:30:58.932Z,65.03
2022-09-14T05:36:30.128Z,65.58
2022-09-14T05:42:01.373Z,65.81
2022-09-14T05:47:34.893Z,65.58
2022-09-14T05:53:10.190Z,65.37
2022-09-14T05:58:41.761Z,65.60
2022-09-14T06:04:13.284Z,65.58
2022-09-14T06:09:44.411Z,65.42
2022-09-14T06:15:15.602Z,66.10
2022-09-14T06:20:53.378Z,65.71
2022-09-14T06:26:26.020Z,65.32
2022-09-14T06:32:04.683Z,65.55
2022-09-14T06:37:35.593Z,66.01
2022-09-14T06:43:06.538Z,66.13
2022-09-14T06:48:44.388Z,65.69
2022-09-14T06:54:16.765Z,65.72
2022-09-14T06:59:47.887Z,65.67
2022-09-14T07:05:20.657Z,66.34
2022-09-14T07:10:59.058Z,65.80
2022-09-14T07:16:31.839Z,65.75
2022-09-14T07:22:03.203Z,65.85
2022-09-14T07:27:34.853Z,65.64
2022-09-14T07:33:06.245Z,65.68
2022-09-14T07:38:51.759Z,65.68
2022-09-14T07:44:23.599Z,65.70
2022-09-14T07:49:54.435Z,65.95
2022-09-14T07:55:25.638Z,68.72
2022-09-14T08:01:01.259Z,67.71
2022-09-14T08:06:32.691Z,71.07
2022-09-14T08:12:04.822Z,71.88
2022-09-14T08:17:35.951Z,72.26
2022-09-14T08:23:07.038Z,72.39
2022-09-14T08:28:39.196Z,72.85
2022-09-14T08:34:10.187Z,73.38
2022-09-14T08:39:41.355Z,73.75
2022-09-14T08:45:16.817Z,73.74
2022-09-14T08:50:47.611Z,73.71
2022-09-14T08:56:28.776Z,74.38
2022-09-14T09:02:33.668Z,74.23
2022-09-14T09:08:13.568Z,74.98
2022-09-14T09:13:46.288Z,74.73
2022-09-14T09:19:39.102Z,74.98
2022-09-14T09:25:23.403Z,75.59
2022-09-14T09:30:55.813Z,75.71
2022-09-14T09:36:41.240Z,75.72
2022-09-14T09:42:27.185Z,75.75
2022-09-14T09:47:58.178Z,76.82
2022-09-14T09:53:29.613Z,77.38
2022-09-14T09:59:00.771Z,76.18
2022-09-14T10:04:33.274Z,75.73
2022-09-14T10:10:13.983Z,75.91
2022-09-14T10:15:46.896Z,74.95
2022-09-14T10:21:23.032Z,73.05
2022-09-14T10:26:53.944Z,75.71
2022-09-14T10:32:27.235Z,74.72
2022-09-14T10:38:25.861Z,72.77
2022-09-14T10:44:19.671Z,72.64
2022-09-14T10:50:11.814Z,73.41
2022-09-14T10:56:02.002Z,72.31
2022-09-14T11:01:51.694Z,72.19
2022-09-14T11:07:23.032Z,72.01
2022-09-14T11:13:03.007Z,75.43
2022-09-14T11:18:40.037Z,73.72
2022-09-14T11:24:38.659Z,75.19
2022-09-14T11:30:19.700Z,72.74
2022-09-14T11:35:55.311Z,72.04
2022-09-14T11:41:39.826Z,72.96
2022-09-14T11:47:10.569Z,75.20
2022-09-14T11:52:41.544Z,72.66
2022-09-14T11:58:31.052Z,72.83
2022-09-14T12:04:12.379Z,73.56
2022-09-14T12:09:44.915Z,74.95
2022-09-14T12:15:36.621Z,75.23
2022-09-14T12:21:20.554Z,75.18
2022-09-14T12:26:52.571Z,75.71
2022-09-14T12:32:43.643Z,75.21
2022-09-14T12:38:30.382Z,75.98
2022-09-14T12:44:01.754Z,75.45
2022-09-14T12:49:35.643Z,75.53
2022-09-14T12:55:21.438Z,75.07
2022-09-14T13:01:11.140Z,76.14
2022-09-14T13:06:46.863Z,75.92
2022-09-14T13:12:41.332Z,75.68
2022-09-14T13:18:18.275Z,75.05
2022-09-14T13:23:52.218Z,74.07
2022-09-14T13:29:25.145Z,73.31
2022-09-14T13:34:56.306Z,72.75
2022-09-14T13:40:29.939Z,72.08
2022-09-14T13:46:01.499Z,71.94
2022-09-14T13:51:34.075Z,71.79
2022-09-14T13:57:12.855Z,71.49
2022-09-14T14:02:49.259Z,71.31
2022-09-14T14:08:29.726Z,71.33
2022-09-14T14:14:16.034Z,70.90
2022-09-14T14:19:48.260Z,70.71
2022-09-14T14:25:24.996Z,70.74
2022-09-14T14:30:58.333Z,70.50
2022-09-14T14:36:29.383Z,70.31
2022-09-14T14:42:02.140Z,70.58
2022-09-14T14:47:33.783Z,70.22
2022-09-14T14:53:05.725Z,70.42
2022-09-14T14:58:46.642Z,70.53
2022-09-14T15:04:19.027Z,70.16
2022-09-14T15:09:50.382Z,70.20
2022-09-14T15:15:26.342Z,70.07
2022-09-14T15:20:57.355Z,70.60
2022-09-14T15:26:28.865Z,70.27
2022-09-14T15:32:00.531Z,70.21
2022-09-14T15:37:31.682Z,70.20
2022-09-14T15:43:04.406Z,70.26
2022-09-14T15:48:35.445Z,69.95
2022-09-14T15:54:06.730Z,70.14
2022-09-14T15:59:38.341Z,70.13
2022-09-14T16:05:09.364Z,70.41
2022-09-14T16:10:40.115Z,70.20
2022-09-14T16:16:13.402Z,70.23
2022-09-14T16:21:44.588Z,70.05
2022-09-14T16:27:16.447Z,70.09
2022-09-14T16:32:48.398Z,69.75
2022-09-14T16:38:19.343Z,70.11
2022-09-14T16:43:59.224Z,69.86
2022-09-14T16:49:30.315Z,69.67
2022-09-14T16:55:01.422Z,69.85
2022-09-14T17:00:35.629Z,69.96
2022-09-14T17:06:10.348Z,70.06
2022-09-14T17:11:42.786Z,69.92
2022-09-14T17:17:14.200Z,69.51
2022-09-14T17:22:45.415Z,69.56
2022-09-14T17:28:16.808Z,69.94
2022-09-14T17:33:48.009Z,69.84
2022-09-14T17:39:19.137Z,70.16
2022-09-14T17:44:50.237Z,70.54
2022-09-14T17:50:24.049Z,70.05
2022-09-14T17:56:02.792Z,70.35
2022-09-14T18:01:34.887Z,70.07
2022-09-14T18:07:06.047Z,70.16
2022-09-14T18:12:39.351Z,70.23
2022-09-14T18:18:10.324Z,70.43
2022-09-14T18:23:41.393Z,70.16
2022-09-14T18:29:15.052Z,70.31
2022-09-14T18:34:46.232Z,70.49
2022-09-14T18:40:20.301Z,70.44
2022-09-14T18:45:53.390Z,70.32
2022-09-14T18:51:25.689Z,70.59
2022-09-14T18:56:56.631Z,70.32
2022-09-14T19:02:27.925Z,70.21
2022-09-14T19:08:00.072Z,70.15
2022-09-14T19:13:30.952Z,70.33
2022-09-14T19:19:02.210Z,69.75
2022-09-14T19:24:33.616Z,70.05
2022-09-14T19:30:05.210Z,70.01
2022-09-14T19:35:37.305Z,70.41
2022-09-14T19:41:08.664Z,70.55
2022-09-14T19:46:40.645Z,70.58
2022-09-14T19:52:11.830Z,70.59
2022-09-14T19:57:42.957Z,70.34
2022-09-14T20:03:13.843Z,70.54
2022-09-14T20:08:46.867Z,70.17
2022-09-14T20:14:20.471Z,70.15
2022-09-14T20:19:51.303Z,70.26
2022-09-14T20:25:22.200Z,70.19
2022-09-14T20:30:59.246Z,70.30
2022-09-14T20:36:30.248Z,70.38
2022-09-14T20:42:01.608Z,70.44
2022-09-14T20:47:33.001Z,70.24
2022-09-14T20:53:04.346Z,70.67
2022-09-14T20:58:36.277Z,70.60
2022-09-14T21:04:09.931Z,70.88
2022-09-14T21:09:40.868Z,71.08
2022-09-14T21:15:12.058Z,71.08
2022-09-14T21:20:43.039Z,71.40
2022-09-14T21:26:14.240Z,70.90
2022-09-14T21:31:45.174Z,71.54
2022-09-14T21:37:16.659Z,71.60
2022-09-14T21:42:50.722Z,71.69
2022-09-14T21:48:21.911Z,71.85
2022-09-14T21:53:57.939Z,71.76
2022-09-14T21:59:29.315Z,72.00
2022-09-14T22:05:00.653Z,72.34
2022-09-14T22:10:34.724Z,72.38
2022-09-14T22:16:17.069Z,71.71
2022-09-14T22:21:48.881Z,71.90
2022-09-14T22:27:20.275Z,72.15
2022-09-14T22:32:51.484Z,71.79
2022-09-14T22:38:23.903Z,72.25
2022-09-14T22:43:55.670Z,72.47
2022-09-14T22:49:26.876Z,71.99
2022-09-14T22:54:57.854Z,72.14
2022-09-14T23:00:29.792Z,71.97
2022-09-14T23:06:00.703Z,71.75
2022-09-14T23:11:31.980Z,71.89
2022-09-14T23:17:03.370Z,71.90
2022-09-14T23:22:34.472Z,72.00
2022-09-14T23:28:06.747Z,71.72
2022-09-14T23:33:37.824Z,71.90
2022-09-14T23:39:08.705Z,71.79
2022-09-14T23:44:39.859Z,72.00
2022-09-14T23:50:11.147Z,71.75
2022-09-14T23:55:42.166Z,71.95
